createdAt,value
2023-03-13T00:01:36.253Z,99827.28
2023-03-13T00:04:38.761Z,99795.25
2023-03-13T00:07:41.336Z,99801.69
2023-03-13T00:10:43.724Z,99806.59
2023-03-13T00:13:46.169Z,99805.75
2023-03-13T00:16:48.478Z,99817.06
2023-03-13T00:19:51.417Z,99802.97
2023-03-13T00:22:53.882Z,99809.16
2023-03-13T00:26:00.846Z,99814.84
2023-03-13T00:29:03.267Z,99804.00
2023-03-13T00:32:06.287Z,99797.34
2023-03-13T00:35:09.179Z,99794.91
2023-03-13T00:38:11.976Z,99789.53
2023-03-13T00:41:16.942Z,99780.28
2023-03-13T00:44:19.403Z,99756.84
2023-03-13T00:47:23.202Z,99757.34
2023-03-13T00:50:25.580Z,99756.91
2023-03-13T00:53:28.525Z,99744.16
2023-03-13T00:56:31.116Z,99726.50
2023-03-13T00:59:33.963Z,99744.41
2023-03-13T01:02:42.358Z,99741.13
2023-03-13T01:05:45.566Z,99739.75
2023-03-13T01:08:48.139Z,99734.03
2023-03-13T01:11:50.480Z,99735.91
2023-03-13T01:14:52.840Z,99722.41
2023-03-13T01:17:57.784Z,99719.78
2023-03-13T01:21:00.059Z,99712.78
2023-03-13T01:24:02.709Z,99723.41
2023-03-13T01:27:05.136Z,99719.31
2023-03-13T01:30:08.234Z,99729.34
2023-03-13T01:33:10.777Z,99746.19
2023-03-13T01:36:13.476Z,99737.16
2023-03-13T01:39:17.621Z,99730.28
2023-03-13T01:42:20.023Z,99725.59
2023-03-13T01:45:59.359Z,99731.91
2023-03-13T01:49:12.787Z,99719.41
2023-03-13T01:52:37.593Z,99712.28
2023-03-13T01:55:48.237Z,99696.53
2023-03-13T01:58:51.970Z,99708.06
2023-03-13T02:01:58.374Z,99690.59
2023-03-13T02:05:02.562Z,99694.41
2023-03-13T02:08:24.342Z,99697.91
2023-03-13T02:11:45.061Z,99679.69
2023-03-13T02:14:47.982Z,99668.97
2023-03-13T02:17:52.278Z,99689.16
2023-03-13T02:20:58.074Z,99680.38
2023-03-13T02:24:22.326Z,99679.03
2023-03-13T02:27:25.000Z,99679.38
2023-03-13T02:30:28.630Z,99684.50
2023-03-13T02:33:33.471Z,99681.09
2023-03-13T02:36:35.883Z,99680.75
2023-03-13T02:39:40.017Z,99693.38
2023-03-13T02:42:44.665Z,99677.00
2023-03-13T02:46:03.788Z,99671.06
2023-03-13T02:49:29.505Z,99668.00
2023-03-13T02:52:42.192Z,99668.50
2023-03-13T02:55:45.780Z,99664.28
2023-03-13T02:58:50.409Z,99659.94
2023-03-13T03:01:56.933Z,99661.13
2023-03-13T03:04:59.484Z,99649.78
2023-03-13T03:08:02.113Z,99658.69
2023-03-13T03:11:06.484Z,99640.81
2023-03-13T03:14:09.952Z,99648.03
2023-03-13T03:17:17.692Z,99639.50
2023-03-13T03:20:20.032Z,99631.91
2023-03-13T03:23:22.940Z,99640.56
2023-03-13T03:26:25.353Z,99622.91
2023-03-13T03:29:28.158Z,99633.22
2023-03-13T03:32:31.824Z,99635.28
2023-03-13T03:35:38.670Z,99627.59
2023-03-13T03:38:43.344Z,99623.97
2023-03-13T03:41:47.942Z,99609.88
2023-03-13T03:44:50.468Z,99621.09
2023-03-13T03:47:54.121Z,99608.19
2023-03-13T03:50:57.448Z,99592.41
2023-03-13T03:54:00.527Z,99611.63
2023-03-13T03:57:05.897Z,99602.50
2023-03-13T04:00:12.234Z,99608.56
2023-03-13T04:03:15.534Z,99614.31
2023-03-13T04:06:18.700Z,99615.22
2023-03-13T04:09:22.069Z,99609.84
2023-03-13T04:12:24.383Z,99609.97
2023-03-13T04:15:28.963Z,99603.81
2023-03-13T04:18:31.742Z,99609.38
2023-03-13T04:21:34.519Z,99612.75
2023-03-13T04:24:41.961Z,99599.47
2023-03-13T04:27:44.781Z,99599.31
2023-03-13T04:30:47.244Z,99594.19
2023-03-13T04:34:16.825Z,99588.50
2023-03-13T04:37:54.549Z,99600.72
2023-03-13T04:41:22.951Z,99595.13
2023-03-13T04:44:43.447Z,99601.91
2023-03-13T04:48:13.855Z,99595.84
2023-03-13T04:51:27.615Z,99549.94
2023-03-13T04:54:45.761Z,99576.34
2023-03-13T04:58:07.056Z,99576.09
2023-03-13T05:01:16.277Z,99567.59
2023-03-13T05:04:46.705Z,99473.84
2023-03-13T05:08:11.008Z,99505.00
2023-03-13T05:11:52.013Z,99560.47
2023-03-13T05:15:26.681Z,99571.34
2023-03-13T05:18:52.000Z,99565.59
2023-03-13T05:22:09.555Z,99554.16
2023-03-13T05:25:11.940Z,99542.72
2023-03-13T05:28:26.641Z,99543.28
2023-03-13T05:31:48.719Z,99526.97
2023-03-13T05:35:11.443Z,99537.34
2023-03-13T05:38:32.764Z,99527.78
2023-03-13T05:41:57.503Z,99534.06
2023-03-13T05:45:13.036Z,99529.88
2023-03-13T05:48:45.762Z,99524.59
2023-03-13T05:52:18.438Z,99510.13
2023-03-13T05:55:33.699Z,99514.69
2023-03-13T05:59:02.198Z,99509.69
2023-03-13T06:02:27.112Z,99509.31
2023-03-13T06:05:30.091Z,99482.94
2023-03-13T06:08:33.822Z,99505.47
2023-03-13T06:11:36.800Z,99513.84
2023-03-13T06:14:40.966Z,99489.56
2023-03-13T06:18:01.770Z,99505.69
2023-03-13T06:21:04.438Z,99495.78
2023-03-13T06:24:07.348Z,99491.84
2023-03-13T06:27:09.632Z,99487.75
2023-03-13T06:30:12.861Z,99493.00
2023-03-13T06:33:15.596Z,99487.22
2023-03-13T06:36:18.513Z,99485.09
2023-03-13T06:39:21.093Z,99493.75
2023-03-13T06:42:23.399Z,99486.50
2023-03-13T06:45:26.013Z,99488.84
2023-03-13T06:48:28.460Z,99488.09
2023-03-13T06:51:31.119Z,99486.44
2023-03-13T06:54:33.813Z,99481.19
2023-03-13T06:57:36.116Z,99475.13
2023-03-13T07:00:40.899Z,99461.19
2023-03-13T07:03:43.701Z,99453.81
2023-03-13T07:06:46.858Z,99451.00
2023-03-13T07:09:49.351Z,99452.72
2023-03-13T07:12:51.738Z,99441.88
2023-03-13T07:15:54.648Z,99444.44
2023-03-13T07:18:57.059Z,99448.25
2023-03-13T07:21:59.765Z,99446.59
2023-03-13T07:25:02.291Z,99418.91
2023-03-13T07:28:04.760Z,99433.34
2023-03-13T07:31:09.816Z,99423.34
2023-03-13T07:34:12.292Z,99416.91
2023-03-13T07:37:15.714Z,99405.06
2023-03-13T07:40:18.217Z,99405.09
2023-03-13T07:43:21.099Z,99402.34
2023-03-13T07:46:23.700Z,99382.16
2023-03-13T07:49:26.365Z,99384.66
2023-03-13T07:52:28.765Z,99380.06
2023-03-13T07:55:31.305Z,99386.31
2023-03-13T07:58:36.516Z,99389.03
2023-03-13T08:01:38.979Z,99379.94
2023-03-13T08:04:41.296Z,99370.63
2023-03-13T08:07:45.457Z,99370.03
2023-03-13T08:10:47.623Z,99358.88
2023-03-13T08:13:50.256Z,99355.44
2023-03-13T08:16:52.710Z,99344.97
2023-03-13T08:19:55.069Z,99345.16
2023-03-13T08:22:58.117Z,99342.06
2023-03-13T08:26:06.900Z,99338.31
2023-03-13T08:29:15.022Z,99303.28
2023-03-13T08:32:18.445Z,99322.56
2023-03-13T08:35:20.964Z,99317.56
2023-03-13T08:38:23.725Z,99317.50
2023-03-13T08:41:32.337Z,99311.56
2023-03-13T08:44:34.673Z,99304.06
2023-03-13T08:47:37.151Z,99288.44
2023-03-13T08:50:39.491Z,99300.56
2023-03-13T08:53:44.229Z,99296.81
2023-03-13T08:56:47.094Z,99283.59
2023-03-13T08:59:50.807Z,99282.50
2023-03-13T09:02:53.362Z,99278.44
2023-03-13T09:05:58.301Z,99279.53
2023-03-13T09:09:00.851Z,99284.13
2023-03-13T09:12:04.499Z,99264.09
2023-03-13T09:15:07.838Z,99261.13
2023-03-13T09:18:10.781Z,99235.69
2023-03-13T09:21:15.807Z,99266.75
2023-03-13T09:24:18.394Z,99253.50
2023-03-13T09:27:20.794Z,99251.34
2023-03-13T09:30:23.144Z,99251.25
2023-03-13T09:33:25.609Z,99238.00
2023-03-13T09:36:28.879Z,99240.38
2023-03-13T09:39:31.209Z,99237.81
2023-03-13T09:42:44.929Z,99229.41
2023-03-13T09:45:49.360Z,99223.41
2023-03-13T09:48:58.292Z,99215.00
2023-03-13T09:52:05.478Z,99201.16
2023-03-13T09:55:20.616Z,99211.63
2023-03-13T09:58:25.095Z,99193.44
2023-03-13T10:01:31.514Z,99195.28
2023-03-13T10:04:42.672Z,99199.16
2023-03-13T10:07:45.114Z,99191.03
2023-03-13T10:11:01.886Z,99177.34
2023-03-13T10:14:40.503Z,99171.19
2023-03-13T10:17:43.046Z,99167.13
2023-03-13T10:20:48.569Z,99157.94
2023-03-13T10:24:02.198Z,99149.75
2023-03-13T10:27:04.630Z,99136.66
2023-03-13T10:30:07.737Z,99154.56
2023-03-13T10:33:18.451Z,99152.56
2023-03-13T10:36:20.822Z,99135.03
2023-03-13T10:39:24.628Z,99132.75
2023-03-13T10:42:36.490Z,99112.91
2023-03-13T10:45:39.093Z,99117.97
2023-03-13T10:48:42.261Z,99118.53
2023-03-13T10:51:50.152Z,99117.22
2023-03-13T10:55:00.187Z,99112.06
2023-03-13T10:58:04.411Z,99115.03
2023-03-13T11:01:26.317Z,99099.03
2023-03-13T11:04:39.696Z,99093.50
2023-03-13T11:07:42.186Z,99080.97
2023-03-13T11:11:00.413Z,99075.38
2023-03-13T11:14:09.039Z,99070.13
2023-03-13T11:17:13.938Z,99065.72
2023-03-13T11:20:29.440Z,99060.75
2023-03-13T11:23:48.323Z,99041.78
2023-03-13T11:27:05.556Z,99035.53
2023-03-13T11:30:20.054Z,99027.13
2023-03-13T11:33:34.297Z,99031.53
2023-03-13T11:36:41.663Z,99022.44
2023-03-13T11:40:08.251Z,99011.28
2023-03-13T11:43:24.562Z,99012.28
2023-03-13T11:46:34.048Z,98999.09
2023-03-13T11:50:04.313Z,98994.38
2023-03-13T11:53:29.053Z,98978.09
2023-03-13T11:56:54.547Z,98972.06
2023-03-13T12:00:18.257Z,98983.25
2023-03-13T12:03:34.952Z,98969.34
2023-03-13T12:06:42.480Z,98957.56
2023-03-13T12:09:54.967Z,98947.22
2023-03-13T12:13:04.229Z,98944.56
2023-03-13T12:16:14.331Z,98942.50
2023-03-13T12:19:22.671Z,98932.75
2023-03-13T12:22:41.089Z,98949.66
2023-03-13T12:25:57.748Z,98914.13
2023-03-13T12:29:21.318Z,98901.03
2023-03-13T12:32:46.441Z,98898.19
2023-03-13T12:35:54.703Z,98893.97
2023-03-13T12:39:03.826Z,98903.97
2023-03-13T12:42:21.262Z,98896.53
2023-03-13T12:45:26.402Z,98899.25
2023-03-13T12:49:13.786Z,98882.84
2023-03-13T12:52:46.537Z,98876.38
2023-03-13T12:56:10.544Z,98875.00
2023-03-13T12:59:20.078Z,98866.31
2023-03-13T13:02:25.202Z,98859.97
2023-03-13T13:05:27.681Z,98853.56
2023-03-13T13:08:35.562Z,98846.72
2023-03-13T13:11:38.474Z,98846.38
2023-03-13T13:14:57.686Z,98838.59
2023-03-13T13:18:11.455Z,98834.19
2023-03-13T13:21:18.232Z,98824.31
2023-03-13T13:24:40.465Z,98816.28
2023-03-13T13:27:42.807Z,98807.94
2023-03-13T13:30:45.658Z,98809.91
2023-03-13T13:33:48.424Z,98806.50
2023-03-13T13:36:52.022Z,98796.03
2023-03-13T13:39:55.294Z,98792.16
2023-03-13T13:43:02.694Z,98780.78
2023-03-13T13:46:30.136Z,98788.22
2023-03-13T13:49:34.983Z,98752.34
2023-03-13T13:52:41.657Z,98778.50
2023-03-13T13:55:45.148Z,98770.56
2023-03-13T13:58:47.817Z,98767.63
2023-03-13T14:02:13.737Z,98755.44
2023-03-13T14:05:22.744Z,98754.28
2023-03-13T14:08:41.318Z,98751.75
2023-03-13T14:11:43.998Z,98749.47
2023-03-13T14:14:46.363Z,98746.84
2023-03-13T14:17:53.490Z,98753.19
2023-03-13T14:21:01.825Z,98741.16
2023-03-13T14:24:13.937Z,98742.72
2023-03-13T14:27:18.188Z,98737.41
2023-03-13T14:30:20.763Z,98749.91
2023-03-13T14:33:26.984Z,98737.09
2023-03-13T14:36:30.320Z,98737.28
2023-03-13T14:39:33.022Z,98738.72
2023-03-13T14:42:46.151Z,98739.00
2023-03-13T14:45:49.833Z,98732.91
2023-03-13T14:48:55.948Z,98724.94
2023-03-13T14:52:19.258Z,98718.00
2023-03-13T14:55:22.111Z,98717.84
2023-03-13T14:58:25.532Z,98716.53
2023-03-13T15:01:30.961Z,98710.78
2023-03-13T15:05:28.830Z,98717.63
2023-03-13T15:08:31.514Z,98713.06
2023-03-13T15:11:34.944Z,98704.25
2023-03-13T15:14:39.850Z,98699.22
2023-03-13T15:17:42.569Z,98714.31
2023-03-13T15:20:45.012Z,98714.69
2023-03-13T15:24:14.508Z,98719.41
2023-03-13T15:27:22.095Z,98698.31
2023-03-13T15:30:24.606Z,98709.28
2023-03-13T15:33:30.270Z,98719.13
2023-03-13T15:36:32.671Z,98698.78
2023-03-13T15:39:35.397Z,98714.69
2023-03-13T15:42:37.764Z,98709.47
2023-03-13T15:45:42.305Z,98707.50
2023-03-13T15:48:44.685Z,98699.22
2023-03-13T15:51:47.092Z,98711.28
2023-03-13T15:54:50.572Z,98711.25
2023-03-13T15:57:52.905Z,98705.13
2023-03-13T16:00:56.224Z,98705.25
2023-03-13T16:04:00.810Z,98714.50
2023-03-13T16:07:03.439Z,98720.72
2023-03-13T16:10:13.433Z,98718.50
2023-03-13T16:13:16.333Z,98728.75
2023-03-13T16:16:22.949Z,98726.97
2023-03-13T16:19:26.125Z,98728.19
2023-03-13T16:22:29.528Z,98734.47
2023-03-13T16:25:32.448Z,98718.09
2023-03-13T16:28:34.870Z,98735.19
2023-03-13T16:31:37.404Z,98728.97
2023-03-13T16:34:40.036Z,98734.91
2023-03-13T16:37:42.504Z,98736.56
2023-03-13T16:40:46.410Z,98742.94
2023-03-13T16:43:49.396Z,98733.50
2023-03-13T16:47:04.779Z,98736.91
2023-03-13T16:50:35.729Z,98750.28
2023-03-13T16:53:38.051Z,98734.56
2023-03-13T16:56:43.396Z,98735.38
2023-03-13T16:59:46.021Z,98746.94
2023-03-13T17:02:50.349Z,98734.94
2023-03-13T17:05:52.986Z,98731.16
2023-03-13T17:08:56.374Z,98737.38
2023-03-13T17:11:58.874Z,98729.94
2023-03-13T17:15:01.373Z,98733.34
2023-03-13T17:18:04.116Z,98728.41
2023-03-13T17:21:07.166Z,98738.84
2023-03-13T17:24:09.723Z,98738.03
2023-03-13T17:27:14.051Z,98733.41
2023-03-13T17:30:20.895Z,98730.88
2023-03-13T17:33:23.832Z,98732.78
2023-03-13T17:36:27.722Z,98717.19
2023-03-13T17:39:30.259Z,98725.34
2023-03-13T17:42:32.817Z,98732.06
2023-03-13T17:45:37.097Z,98730.59
2023-03-13T17:48:39.944Z,98729.25
2023-03-13T17:51:42.556Z,98733.56
2023-03-13T17:54:45.896Z,98721.91
2023-03-13T17:57:49.046Z,98725.59
2023-03-13T18:00:51.736Z,98729.97
2023-03-13T18:03:54.384Z,98719.63
2023-03-13T18:06:56.891Z,98724.38
2023-03-13T18:09:59.636Z,98716.84
2023-03-13T18:13:01.920Z,98710.84
2023-03-13T18:16:16.431Z,98709.81
2023-03-13T18:19:22.423Z,98723.34
2023-03-13T18:22:25.488Z,98713.22
2023-03-13T18:25:28.700Z,98719.25
2023-03-13T18:28:31.155Z,98709.09
2023-03-13T18:31:36.245Z,98713.72
2023-03-13T18:34:38.924Z,98708.63
2023-03-13T18:37:43.802Z,98707.22
2023-03-13T18:40:46.374Z,98698.22
2023-03-13T18:43:49.553Z,98711.78
2023-03-13T18:46:53.180Z,98704.59
2023-03-13T18:49:55.864Z,98692.84
2023-03-13T18:53:00.210Z,98683.41
2023-03-13T18:56:02.889Z,98686.22
2023-03-13T18:59:05.410Z,98680.84
2023-03-13T19:02:09.657Z,98663.66
2023-03-13T19:05:12.486Z,98690.09
2023-03-13T19:08:14.816Z,98683.84
2023-03-13T19:11:19.902Z,98672.59
2023-03-13T19:14:22.343Z,98671.53
2023-03-13T19:17:31.392Z,98681.56
2023-03-13T19:20:34.059Z,98676.84
2023-03-13T19:23:36.831Z,98661.72
2023-03-13T19:26:43.030Z,98679.69
2023-03-13T19:29:46.598Z,98675.53
2023-03-13T19:32:49.074Z,98683.19
2023-03-13T19:35:51.594Z,98691.75
2023-03-13T19:38:54.135Z,98679.19
2023-03-13T19:41:58.574Z,98698.56
2023-03-13T19:45:01.591Z,98674.19
2023-03-13T19:48:04.456Z,98682.66
2023-03-13T19:51:06.887Z,98665.47
2023-03-13T19:54:13.118Z,98669.59
2023-03-13T19:57:15.580Z,98662.47
2023-03-13T20:00:23.531Z,98666.00
2023-03-13T20:03:26.116Z,98662.53
2023-03-13T20:06:33.387Z,98670.78
2023-03-13T20:09:36.765Z,98651.69
2023-03-13T20:12:39.383Z,98652.63
2023-03-13T20:15:42.304Z,98653.47
2023-03-13T20:18:47.658Z,98651.72
2023-03-13T20:21:50.029Z,98654.44
2023-03-13T20:24:53.679Z,98647.72
2023-03-13T20:27:56.113Z,98658.16
2023-03-13T20:30:58.539Z,98646.34
2023-03-13T20:34:01.187Z,98644.06
2023-03-13T20:37:04.044Z,98629.75
2023-03-13T20:40:13.183Z,98624.25
2023-03-13T20:43:15.634Z,98620.78
2023-03-13T20:46:18.360Z,98610.97
2023-03-13T20:49:21.181Z,98593.84
2023-03-13T20:52:23.623Z,98607.94
2023-03-13T20:55:26.148Z,98606.81
2023-03-13T20:58:28.499Z,98601.97
2023-03-13T21:01:32.275Z,98595.16
2023-03-13T21:04:35.236Z,98605.34
2023-03-13T21:07:37.647Z,98603.78
2023-03-13T21:10:41.054Z,98599.47
2023-03-13T21:13:43.569Z,98583.69
2023-03-13T21:16:47.078Z,98583.03
2023-03-13T21:19:49.512Z,98574.63
2023-03-13T21:22:52.048Z,98566.84
2023-03-13T21:25:59.527Z,98562.22
2023-03-13T21:29:02.330Z,98562.72
2023-03-13T21:32:05.077Z,98572.78
2023-03-13T21:35:09.420Z,98573.19
2023-03-13T21:38:11.808Z,98595.88
2023-03-13T21:41:16.763Z,98577.47
2023-03-13T21:44:19.731Z,98598.22
2023-03-13T21:47:24.587Z,98587.53
2023-03-13T21:50:27.082Z,98589.84
2023-03-13T21:53:29.478Z,98580.72
2023-03-13T21:56:31.958Z,98565.25
2023-03-13T21:59:34.320Z,98565.28
2023-03-13T22:02:37.377Z,98571.63
2023-03-13T22:05:44.444Z,98581.22
2023-03-13T22:08:47.312Z,98557.56
2023-03-13T22:11:49.674Z,98571.69
2023-03-13T22:14:52.461Z,98559.38
2023-03-13T22:17:54.909Z,98563.34
2023-03-13T22:20:58.513Z,98556.34
2023-03-13T22:24:00.855Z,98545.13
2023-03-13T22:27:03.237Z,98536.50
2023-03-13T22:30:06.310Z,98507.38
2023-03-13T22:33:08.843Z,98485.47
2023-03-13T22:36:11.730Z,98498.13
2023-03-13T22:39:14.074Z,98487.88
2023-03-13T22:42:16.346Z,98479.84
2023-03-13T22:45:19.858Z,98479.38
2023-03-13T22:48:22.356Z,98477.59
2023-03-13T22:51:24.847Z,98468.00
2023-03-13T22:54:27.123Z,98457.63
2023-03-13T22:57:29.684Z,98463.66
2023-03-13T23:00:33.212Z,98471.00
2023-03-13T23:03:36.267Z,98461.59
2023-03-13T23:06:38.813Z,98452.81
2023-03-13T23:09:41.164Z,98452.75
2023-03-13T23:12:43.592Z,98449.13
2023-03-13T23:16:01.229Z,98442.59
2023-03-13T23:19:03.997Z,98458.09
2023-03-13T23:22:06.360Z,98446.75
2023-03-13T23:25:09.919Z,98451.78
2023-03-13T23:28:12.615Z,98453.28
2023-03-13T23:31:21.221Z,98453.13
2023-03-13T23:34:23.625Z,98459.06
2023-03-13T23:37:25.987Z,98462.56
2023-03-13T23:40:29.033Z,98460.34
2023-03-13T23:43:31.497Z,98459.53
2023-03-13T23:46:34.217Z,98464.84
2023-03-13T23:49:36.528Z,98458.59
2023-03-13T23:52:39.354Z,98461.00
2023-03-13T23:55:41.698Z,98457.16
2023-03-13T23:58:44.174Z,98444.19
